sensor_id;sensor_type;location;lat;lon;timestamp;P1;durP1;ratioP1;P2;durP2;ratioP2
19521;SDS011;9905;52.126;5.596;2023-04-06T00:00:14;10.65;;;8.40;;
19521;SDS011;9905;52.126;5.596;2023-04-06T00:02:42;9.52;;;7.68;;
19521;SDS011;9905;52.126;5.596;2023-04-06T00:05:09;7.97;;;7.18;;
19521;SDS011;9905;52.126;5.596;2023-04-06T00:07:36;10.95;;;8.20;;
19521;SDS011;9905;52.126;5.596;2023-04-06T00:10:03;8.98;;;7.90;;
19521;SDS011;9905;52.126;5.596;2023-04-06T00:12:30;8.50;;;7.68;;
19521;SDS011;9905;52.126;5.596;2023-04-06T00:14:57;7.95;;;7.20;;
19521;SDS011;9905;52.126;5.596;2023-04-06T00:17:24;8.18;;;7.45;;
19521;SDS011;9905;52.126;5.596;2023-04-06T00:19:52;8.77;;;7.40;;
19521;SDS011;9905;52.126;5.596;2023-04-06T00:22:19;8.43;;;7.72;;
19521;SDS011;9905;52.126;5.596;2023-04-06T00:24:45;8.68;;;7.32;;
19521;SDS011;9905;52.126;5.596;2023-04-06T00:27:12;9.13;;;7.63;;
19521;SDS011;9905;52.126;5.596;2023-04-06T00:29:39;8.18;;;7.30;;
19521;SDS011;9905;52.126;5.596;2023-04-06T00:32:06;7.53;;;6.82;;
19521;SDS011;9905;52.126;5.596;2023-04-06T00:34:33;8.70;;;6.97;;
19521;SDS011;9905;52.126;5.596;2023-04-06T00:37:01;9.40;;;6.85;;
19521;SDS011;9905;52.126;5.596;2023-04-06T00:39:28;13.48;;;7.70;;
19521;SDS011;9905;52.126;5.596;2023-04-06T00:41:55;8.23;;;7.38;;
19521;SDS011;9905;52.126;5.596;2023-04-06T00:44:22;7.85;;;7.18;;
19521;SDS011;9905;52.126;5.596;2023-04-06T00:46:50;11.27;;;7.13;;
19521;SDS011;9905;52.126;5.596;2023-04-06T00:49:17;8.30;;;7.53;;
19521;SDS011;9905;52.126;5.596;2023-04-06T00:51:44;9.20;;;7.25;;
19521;SDS011;9905;52.126;5.596;2023-04-06T00:54:12;8.18;;;7.35;;
19521;SDS011;9905;52.126;5.596;2023-04-06T00:56:39;8.15;;;7.30;;
19521;SDS011;9905;52.126;5.596;2023-04-06T00:59:08;8.13;;;7.28;;
19521;SDS011;9905;52.126;5.596;2023-04-06T01:01:34;8.20;;;7.13;;
19521;SDS011;9905;52.126;5.596;2023-04-06T01:04:01;7.07;;;6.53;;
19521;SDS011;9905;52.126;5.596;2023-04-06T01:06:28;7.13;;;6.53;;
19521;SDS011;9905;52.126;5.596;2023-04-06T01:08:55;8.75;;;7.85;;
19521;SDS011;9905;52.126;5.596;2023-04-06T01:11:23;8.63;;;7.22;;
19521;SDS011;9905;52.126;5.596;2023-04-06T01:13:51;7.88;;;6.93;;
19521;SDS011;9905;52.126;5.596;2023-04-06T01:16:17;10.00;;;7.00;;
19521;SDS011;9905;52.126;5.596;2023-04-06T01:18:44;7.97;;;7.28;;
19521;SDS011;9905;52.126;5.596;2023-04-06T01:21:11;9.77;;;6.97;;
19521;SDS011;9905;52.126;5.596;2023-04-06T01:23:43;7.75;;;6.97;;
19521;SDS011;9905;52.126;5.596;2023-04-06T01:26:10;8.70;;;7.40;;
19521;SDS011;9905;52.126;5.596;2023-04-06T01:28:37;14.20;;;8.18;;
19521;SDS011;9905;52.126;5.596;2023-04-06T01:31:04;7.68;;;6.75;;
19521;SDS011;9905;52.126;5.596;2023-04-06T01:33:31;7.68;;;6.97;;
19521;SDS011;9905;52.126;5.596;2023-04-06T01:35:58;7.43;;;6.78;;
19521;SDS011;9905;52.126;5.596;2023-04-06T01:38:25;7.82;;;7.13;;
19521;SDS011;9905;52.126;5.596;2023-04-06T01:40:54;12.68;;;7.75;;
19521;SDS011;9905;52.126;5.596;2023-04-06T01:43:21;7.07;;;6.38;;
19521;SDS011;9905;52.126;5.596;2023-04-06T01:45:47;8.98;;;7.70;;
19521;SDS011;9905;52.126;5.596;2023-04-06T01:48:14;7.88;;;6.90;;
19521;SDS011;9905;52.126;5.596;2023-04-06T01:50:41;9.35;;;7.50;;
19521;SDS011;9905;52.126;5.596;2023-04-06T01:53:08;7.53;;;6.80;;
19521;SDS011;9905;52.126;5.596;2023-04-06T01:55:35;7.75;;;6.80;;
19521;SDS011;9905;52.126;5.596;2023-04-06T01:58:03;7.63;;;6.90;;
19521;SDS011;9905;52.126;5.596;2023-04-06T02:00:30;9.27;;;7.57;;
19521;SDS011;9905;52.126;5.596;2023-04-06T02:02:56;8.38;;;7.68;;
19521;SDS011;9905;52.126;5.596;2023-04-06T02:05:23;7.85;;;7.05;;
19521;SDS011;9905;52.126;5.596;2023-04-06T02:07:50;7.68;;;6.97;;
19521;SDS011;9905;52.126;5.596;2023-04-06T02:10:17;7.75;;;7.05;;
19521;SDS011;9905;52.126;5.596;2023-04-06T02:12:44;8.52;;;7.07;;
19521;SDS011;9905;52.126;5.596;2023-04-06T02:15:12;8.50;;;7.57;;
19521;SDS011;9905;52.126;5.596;2023-04-06T02:17:39;7.28;;;6.65;;
19521;SDS011;9905;52.126;5.596;2023-04-06T02:20:06;8.63;;;7.35;;
19521;SDS011;9905;52.126;5.596;2023-04-06T02:22:34;8.65;;;7.60;;
19521;SDS011;9905;52.126;5.596;2023-04-06T02:25:01;7.60;;;6.97;;
19521;SDS011;9905;52.126;5.596;2023-04-06T02:27:27;7.80;;;7.18;;
19521;SDS011;9905;52.126;5.596;2023-04-06T02:29:54;9.93;;;7.20;;
19521;SDS011;9905;52.126;5.596;2023-04-06T02:32:22;8.82;;;7.63;;
19521;SDS011;9905;52.126;5.596;2023-04-06T02:34:49;8.68;;;7.45;;
19521;SDS011;9905;52.126;5.596;2023-04-06T02:37:16;8.02;;;7.25;;
19521;SDS011;9905;52.126;5.596;2023-04-06T02:39:42;7.90;;;6.75;;
19521;SDS011;9905;52.126;5.596;2023-04-06T02:42:09;8.50;;;7.70;;
19521;SDS011;9905;52.126;5.596;2023-04-06T02:44:36;7.90;;;7.20;;
19521;SDS011;9905;52.126;5.596;2023-04-06T02:47:03;9.18;;;7.45;;
19521;SDS011;9905;52.126;5.596;2023-04-06T02:49:31;7.80;;;7.00;;
19521;SDS011;9905;52.126;5.596;2023-04-06T02:51:57;7.97;;;7.30;;
19521;SDS011;9905;52.126;5.596;2023-04-06T02:54:24;7.60;;;6.88;;
19521;SDS011;9905;52.126;5.596;2023-04-06T02:56:51;8.02;;;7.18;;
19521;SDS011;9905;52.126;5.596;2023-04-06T02:59:18;8.02;;;7.25;;
19521;SDS011;9905;52.126;5.596;2023-04-06T03:01:44;9.25;;;7.57;;
19521;SDS011;9905;52.126;5.596;2023-04-06T03:04:11;8.13;;;7.47;;
19521;SDS011;9905;52.126;5.596;2023-04-06T03:06:39;8.05;;;7.25;;
19521;SDS011;9905;52.126;5.596;2023-04-06T03:09:06;7.93;;;7.13;;
19521;SDS011;9905;52.126;5.596;2023-04-06T03:11:33;8.40;;;7.60;;
19521;SDS011;9905;52.126;5.596;2023-04-06T03:13:59;8.93;;;7.63;;
19521;SDS011;9905;52.126;5.596;2023-04-06T03:16:26;11.98;;;7.88;;
19521;SDS011;9905;52.126;5.596;2023-04-06T03:18:54;10.85;;;7.43;;
19521;SDS011;9905;52.126;5.596;2023-04-06T03:21:21;8.05;;;7.28;;
19521;SDS011;9905;52.126;5.596;2023-04-06T03:23:49;8.27;;;7.47;;
19521;SDS011;9905;52.126;5.596;2023-04-06T03:26:16;9.90;;;8.07;;
19521;SDS011;9905;52.126;5.596;2023-04-06T03:28:42;8.90;;;7.25;;
19521;SDS011;9905;52.126;5.596;2023-04-06T03:31:09;8.40;;;7.60;;
19521;SDS011;9905;52.126;5.596;2023-04-06T03:33:36;9.13;;;8.23;;
19521;SDS011;9905;52.126;5.596;2023-04-06T03:36:03;8.80;;;8.00;;
19521;SDS011;9905;52.126;5.596;2023-04-06T03:38:30;8.55;;;7.72;;
19521;SDS011;9905;52.126;5.596;2023-04-06T03:40:58;8.82;;;7.75;;
19521;SDS011;9905;52.126;5.596;2023-04-06T03:43:25;9.20;;;7.68;;
19521;SDS011;9905;52.126;5.596;2023-04-06T03:45:52;9.10;;;8.05;;
19521;SDS011;9905;52.126;5.596;2023-04-06T03:48:19;8.45;;;7.45;;
19521;SDS011;9905;52.126;5.596;2023-04-06T03:50:45;8.27;;;7.50;;
19521;SDS011;9905;52.126;5.596;2023-04-06T03:53:12;9.52;;;7.63;;
19521;SDS011;9905;52.126;5.596;2023-04-06T03:55:39;9.80;;;7.90;;
19521;SDS011;9905;52.126;5.596;2023-04-06T03:58:07;7.75;;;7.05;;
19521;SDS011;9905;52.126;5.596;2023-04-06T04:00:34;8.38;;;7.65;;
19521;SDS011;9905;52.126;5.596;2023-04-06T04:03:01;9.82;;;7.28;;
19521;SDS011;9905;52.126;5.596;2023-04-06T04:05:27;13.57;;;8.07;;
19521;SDS011;9905;52.126;5.596;2023-04-06T04:07:54;9.00;;;7.85;;
19521;SDS011;9905;52.126;5.596;2023-04-06T04:10:21;8.00;;;7.20;;
19521;SDS011;9905;52.126;5.596;2023-04-06T04:12:48;9.73;;;7.90;;
19521;SDS011;9905;52.126;5.596;2023-04-06T04:15:16;8.63;;;7.72;;
19521;SDS011;9905;52.126;5.596;2023-04-06T04:17:42;8.27;;;7.45;;
19521;SDS011;9905;52.126;5.596;2023-04-06T04:20:11;8.23;;;7.53;;
19521;SDS011;9905;52.126;5.596;2023-04-06T04:22:38;8.68;;;7.88;;
19521;SDS011;9905;52.126;5.596;2023-04-06T04:25:06;8.90;;;8.00;;
19521;SDS011;9905;52.126;5.596;2023-04-06T04:27:34;10.45;;;9.05;;
19521;SDS011;9905;52.126;5.596;2023-04-06T04:30:00;12.35;;;9.05;;
19521;SDS011;9905;52.126;5.596;2023-04-06T04:32:28;10.05;;;8.35;;
19521;SDS011;9905;52.126;5.596;2023-04-06T04:34:55;9.32;;;8.25;;
19521;SDS011;9905;52.126;5.596;2023-04-06T04:37:22;9.20;;;8.18;;
19521;SDS011;9905;52.126;5.596;2023-04-06T04:39:48;8.90;;;7.70;;
19521;SDS011;9905;52.126;5.596;2023-04-06T04:42:15;9.00;;;8.10;;
19521;SDS011;9905;52.126;5.596;2023-04-06T04:44:42;9.85;;;8.00;;
19521;SDS011;9905;52.126;5.596;2023-04-06T04:47:09;8.48;;;7.70;;
19521;SDS011;9905;52.126;5.596;2023-04-06T04:49:37;10.55;;;8.50;;
19521;SDS011;9905;52.126;5.596;2023-04-06T04:52:04;11.43;;;9.15;;
19521;SDS011;9905;52.126;5.596;2023-04-06T04:54:30;8.93;;;8.10;;
19521;SDS011;9905;52.126;5.596;2023-04-06T04:56:57;10.73;;;7.50;;
19521;SDS011;9905;52.126;5.596;2023-04-06T04:59:24;9.43;;;8.10;;
19521;SDS011;9905;52.126;5.596;2023-04-06T05:01:51;13.32;;;7.70;;
19521;SDS011;9905;52.126;5.596;2023-04-06T05:04:18;11.50;;;8.13;;
19521;SDS011;9905;52.126;5.596;2023-04-06T05:06:46;11.70;;;8.75;;
19521;SDS011;9905;52.126;5.596;2023-04-06T05:09:13;8.00;;;7.28;;
19521;SDS011;9905;52.126;5.596;2023-04-06T05:11:40;11.27;;;8.48;;
19521;SDS011;9905;52.126;5.596;2023-04-06T05:14:07;13.20;;;9.05;;
19521;SDS011;9905;52.126;5.596;2023-04-06T05:16:33;10.07;;;8.52;;
19521;SDS011;9905;52.126;5.596;2023-04-06T05:19:00;11.77;;;8.55;;
19521;SDS011;9905;52.126;5.596;2023-04-06T05:21:27;9.95;;;8.68;;
19521;SDS011;9905;52.126;5.596;2023-04-06T05:23:56;12.70;;;9.15;;
19521;SDS011;9905;52.126;5.596;2023-04-06T05:26:23;8.98;;;8.07;;
19521;SDS011;9905;52.126;5.596;2023-04-06T05:28:50;13.05;;;8.00;;
19521;SDS011;9905;52.126;5.596;2023-04-06T05:31:17;10.77;;;8.77;;
19521;SDS011;9905;52.126;5.596;2023-04-06T05:33:44;10.27;;;8.00;;
19521;SDS011;9905;52.126;5.596;2023-04-06T05:36:10;12.35;;;8.80;;
19521;SDS011;9905;52.126;5.596;2023-04-06T05:38:37;10.27;;;8.38;;
19521;SDS011;9905;52.126;5.596;2023-04-06T05:41:05;11.73;;;8.90;;
19521;SDS011;9905;52.126;5.596;2023-04-06T05:43:32;10.43;;;8.27;;
19521;SDS011;9905;52.126;5.596;2023-04-06T05:45:58;10.80;;;8.27;;
19521;SDS011;9905;52.126;5.596;2023-04-06T05:48:25;10.13;;;8.30;;
19521;SDS011;9905;52.126;5.596;2023-04-06T05:50:52;9.30;;;8.35;;
19521;SDS011;9905;52.126;5.596;2023-04-06T05:53:19;12.95;;;9.48;;
19521;SDS011;9905;52.126;5.596;2023-04-06T05:55:46;11.07;;;8.70;;
19521;SDS011;9905;52.126;5.596;2023-04-06T05:58:14;10.70;;;9.07;;
19521;SDS011;9905;52.126;5.596;2023-04-06T06:00:42;13.07;;;8.52;;
19521;SDS011;9905;52.126;5.596;2023-04-06T06:03:10;10.43;;;9.13;;
19521;SDS011;9905;52.126;5.596;2023-04-06T06:05:38;12.70;;;9.98;;
19521;SDS011;9905;52.126;5.596;2023-04-06T06:08:04;17.52;;;10.73;;
19521;SDS011;9905;52.126;5.596;2023-04-06T06:10:32;13.30;;;9.88;;
19521;SDS011;9905;52.126;5.596;2023-04-06T06:12:58;14.40;;;9.60;;
19521;SDS011;9905;52.126;5.596;2023-04-06T06:15:26;15.65;;;10.02;;
19521;SDS011;9905;52.126;5.596;2023-04-06T06:17:53;11.30;;;9.93;;
19521;SDS011;9905;52.126;5.596;2023-04-06T06:20:20;16.63;;;10.43;;
19521;SDS011;9905;52.126;5.596;2023-04-06T06:22:46;15.35;;;9.63;;
19521;SDS011;9905;52.126;5.596;2023-04-06T06:25:13;19.35;;;9.73;;
19521;SDS011;9905;52.126;5.596;2023-04-06T06:27:40;14.60;;;9.80;;
19521;SDS011;9905;52.126;5.596;2023-04-06T06:30:08;14.15;;;10.35;;
19521;SDS011;9905;52.126;5.596;2023-04-06T06:32:36;14.35;;;10.13;;
19521;SDS011;9905;52.126;5.596;2023-04-06T06:35:03;15.55;;;10.85;;
19521;SDS011;9905;52.126;5.596;2023-04-06T06:37:30;14.30;;;10.38;;
19521;SDS011;9905;52.126;5.596;2023-04-06T06:39:57;14.32;;;10.23;;
19521;SDS011;9905;52.126;5.596;2023-04-06T06:42:24;15.13;;;10.00;;
19521;SDS011;9905;52.126;5.596;2023-04-06T06:44:51;17.13;;;10.32;;
19521;SDS011;9905;52.126;5.596;2023-04-06T06:47:17;11.57;;;10.00;;
19521;SDS011;9905;52.126;5.596;2023-04-06T06:49:45;12.55;;;10.48;;
19521;SDS011;9905;52.126;5.596;2023-04-06T06:52:12;15.05;;;10.75;;
19521;SDS011;9905;52.126;5.596;2023-04-06T06:54:39;16.10;;;11.13;;
19521;SDS011;9905;52.126;5.596;2023-04-06T06:57:06;19.67;;;11.50;;
19521;SDS011;9905;52.126;5.596;2023-04-06T06:59:33;19.02;;;11.00;;
19521;SDS011;9905;52.126;5.596;2023-04-06T07:01:59;19.83;;;10.98;;
19521;SDS011;9905;52.126;5.596;2023-04-06T07:04:26;16.30;;;11.30;;
19521;SDS011;9905;52.126;5.596;2023-04-06T07:06:54;16.23;;;11.20;;
19521;SDS011;9905;52.126;5.596;2023-04-06T07:09:21;18.70;;;11.40;;
19521;SDS011;9905;52.126;5.596;2023-04-06T07:11:48;19.73;;;11.23;;
19521;SDS011;9905;52.126;5.596;2023-04-06T07:14:15;20.10;;;11.60;;
19521;SDS011;9905;52.126;5.596;2023-04-06T07:16:41;18.83;;;11.32;;
19521;SDS011;9905;52.126;5.596;2023-04-06T07:19:10;15.75;;;11.30;;
19521;SDS011;9905;52.126;5.596;2023-04-06T07:21:36;15.95;;;10.50;;
19521;SDS011;9905;52.126;5.596;2023-04-06T07:24:05;16.58;;;10.80;;
19521;SDS011;9905;52.126;5.596;2023-04-06T07:26:32;20.15;;;11.07;;
19521;SDS011;9905;52.126;5.596;2023-04-06T07:28:58;15.88;;;10.98;;
19521;SDS011;9905;52.126;5.596;2023-04-06T07:31:25;24.83;;;11.68;;
19521;SDS011;9905;52.126;5.596;2023-04-06T07:33:52;18.45;;;11.30;;
19521;SDS011;9905;52.126;5.596;2023-04-06T07:36:19;15.23;;;11.02;;
19521;SDS011;9905;52.126;5.596;2023-04-06T07:38:46;21.13;;;11.00;;
19521;SDS011;9905;52.126;5.596;2023-04-06T07:41:15;18.30;;;11.48;;
19521;SDS011;9905;52.126;5.596;2023-04-06T07:43:41;16.98;;;11.32;;
19521;SDS011;9905;52.126;5.596;2023-04-06T07:46:08;15.75;;;10.85;;
19521;SDS011;9905;52.126;5.596;2023-04-06T07:48:35;15.18;;;10.90;;
19521;SDS011;9905;52.126;5.596;2023-04-06T07:51:04;18.73;;;11.88;;
19521;SDS011;9905;52.126;5.596;2023-04-06T07:53:31;14.85;;;10.52;;
19521;SDS011;9905;52.126;5.596;2023-04-06T07:55:58;20.45;;;12.10;;
19521;SDS011;9905;52.126;5.596;2023-04-06T07:58:26;19.27;;;11.45;;
19521;SDS011;9905;52.126;5.596;2023-04-06T08:00:53;19.33;;;10.60;;
19521;SDS011;9905;52.126;5.596;2023-04-06T08:03:20;13.75;;;10.18;;
19521;SDS011;9905;52.126;5.596;2023-04-06T08:05:50;16.40;;;11.00;;
19521;SDS011;9905;52.126;5.596;2023-04-06T08:08:17;15.55;;;10.90;;
19521;SDS011;9905;52.126;5.596;2023-04-06T08:10:44;18.45;;;11.90;;
19521;SDS011;9905;52.126;5.596;2023-04-06T08:13:11;15.30;;;11.30;;
19521;SDS011;9905;52.126;5.596;2023-04-06T08:15:39;18.67;;;11.80;;
19521;SDS011;9905;52.126;5.596;2023-04-06T08:18:06;19.95;;;12.15;;
19521;SDS011;9905;52.126;5.596;2023-04-06T08:20:33;19.35;;;12.10;;
19521;SDS011;9905;52.126;5.596;2023-04-06T08:23:00;15.93;;;11.38;;
19521;SDS011;9905;52.126;5.596;2023-04-06T08:25:27;15.73;;;11.43;;
19521;SDS011;9905;52.126;5.596;2023-04-06T08:27:53;16.52;;;11.90;;
19521;SDS011;9905;52.126;5.596;2023-04-06T08:30:20;14.05;;;11.35;;
19521;SDS011;9905;52.126;5.596;2023-04-06T08:32:48;16.67;;;11.48;;
19521;SDS011;9905;52.126;5.596;2023-04-06T08:35:15;17.38;;;12.20;;
19521;SDS011;9905;52.126;5.596;2023-04-06T08:37:42;18.17;;;11.60;;
19521;SDS011;9905;52.126;5.596;2023-04-06T08:40:09;17.88;;;12.32;;
19521;SDS011;9905;52.126;5.596;2023-04-06T08:42:38;23.05;;;13.18;;
19521;SDS011;9905;52.126;5.596;2023-04-06T08:45:10;16.40;;;11.35;;
19521;SDS011;9905;52.126;5.596;2023-04-06T08:47:37;21.58;;;12.65;;
19521;SDS011;9905;52.126;5.596;2023-04-06T08:50:06;14.27;;;11.70;;
19521;SDS011;9905;52.126;5.596;2023-04-06T08:52:36;15.85;;;11.60;;
19521;SDS011;9905;52.126;5.596;2023-04-06T08:55:04;22.40;;;12.77;;
19521;SDS011;9905;52.126;5.596;2023-04-06T08:57:31;18.50;;;12.55;;
19521;SDS011;9905;52.126;5.596;2023-04-06T08:59:58;21.75;;;12.38;;
19521;SDS011;9905;52.126;5.596;2023-04-06T09:02:27;17.92;;;12.27;;
19521;SDS011;9905;52.126;5.596;2023-04-06T09:04:53;19.67;;;13.50;;
19521;SDS011;9905;52.126;5.596;2023-04-06T09:07:22;29.60;;;17.75;;
19521;SDS011;9905;52.126;5.596;2023-04-06T09:09:48;24.45;;;15.65;;
19521;SDS011;9905;52.126;5.596;2023-04-06T09:12:23;20.00;;;13.50;;
19521;SDS011;9905;52.126;5.596;2023-04-06T09:14:51;48.40;;;22.92;;
19521;SDS011;9905;52.126;5.596;2023-04-06T09:17:21;38.92;;;20.40;;
19521;SDS011;9905;52.126;5.596;2023-04-06T09:19:48;26.98;;;16.05;;
19521;SDS011;9905;52.126;5.596;2023-04-06T09:22:15;18.48;;;12.60;;
19521;SDS011;9905;52.126;5.596;2023-04-06T09:24:44;18.35;;;12.95;;
19521;SDS011;9905;52.126;5.596;2023-04-06T09:27:12;22.05;;;13.82;;
19521;SDS011;9905;52.126;5.596;2023-04-06T09:29:39;21.90;;;14.35;;
19521;SDS011;9905;52.126;5.596;2023-04-06T09:32:07;25.30;;;15.07;;
19521;SDS011;9905;52.126;5.596;2023-04-06T09:34:36;25.27;;;15.77;;
19521;SDS011;9905;52.126;5.596;2023-04-06T09:37:11;22.92;;;14.20;;
19521;SDS011;9905;52.126;5.596;2023-04-06T09:39:39;21.67;;;14.50;;
19521;SDS011;9905;52.126;5.596;2023-04-06T09:42:07;25.35;;;15.43;;
19521;SDS011;9905;52.126;5.596;2023-04-06T09:44:34;26.88;;;15.82;;
19521;SDS011;9905;52.126;5.596;2023-04-06T09:47:01;22.45;;;14.95;;
19521;SDS011;9905;52.126;5.596;2023-04-06T09:49:32;26.05;;;16.45;;
19521;SDS011;9905;52.126;5.596;2023-04-06T09:52:01;22.17;;;14.50;;
19521;SDS011;9905;52.126;5.596;2023-04-06T09:54:29;28.20;;;16.90;;
19521;SDS011;9905;52.126;5.596;2023-04-06T09:56:58;30.73;;;17.98;;
19521;SDS011;9905;52.126;5.596;2023-04-06T09:59:36;19.92;;;14.27;;
19521;SDS011;9905;52.126;5.596;2023-04-06T10:02:12;26.20;;;15.38;;
19521;SDS011;9905;52.126;5.596;2023-04-06T10:04:47;29.35;;;16.80;;
19521;SDS011;9905;52.126;5.596;2023-04-06T10:07:20;29.45;;;16.10;;
19521;SDS011;9905;52.126;5.596;2023-04-06T10:09:47;21.17;;;15.07;;
19521;SDS011;9905;52.126;5.596;2023-04-06T10:12:15;29.05;;;16.63;;
19521;SDS011;9905;52.126;5.596;2023-04-06T10:14:43;28.10;;;16.80;;
19521;SDS011;9905;52.126;5.596;2023-04-06T10:17:11;26.58;;;14.98;;
19521;SDS011;9905;52.126;5.596;2023-04-06T10:19:39;28.08;;;16.05;;
19521;SDS011;9905;52.126;5.596;2023-04-06T10:22:14;25.50;;;16.52;;
19521;SDS011;9905;52.126;5.596;2023-04-06T10:24:47;24.98;;;16.52;;
19521;SDS011;9905;52.126;5.596;2023-04-06T10:27:13;31.35;;;17.98;;
19521;SDS011;9905;52.126;5.596;2023-04-06T10:29:41;28.00;;;17.00;;
19521;SDS011;9905;52.126;5.596;2023-04-06T10:32:11;25.05;;;15.25;;
19521;SDS011;9905;52.126;5.596;2023-04-06T10:34:38;26.10;;;14.13;;
19521;SDS011;9905;52.126;5.596;2023-04-06T10:37:12;26.17;;;13.80;;
19521;SDS011;9905;52.126;5.596;2023-04-06T10:39:46;26.50;;;14.13;;
19521;SDS011;9905;52.126;5.596;2023-04-06T10:42:13;22.92;;;15.75;;
19521;SDS011;9905;52.126;5.596;2023-04-06T10:44:42;22.20;;;14.60;;
19521;SDS011;9905;52.126;5.596;2023-04-06T10:47:16;20.30;;;12.85;;
19521;SDS011;9905;52.126;5.596;2023-04-06T10:49:43;20.10;;;13.13;;
19521;SDS011;9905;52.126;5.596;2023-04-06T10:52:10;16.75;;;12.20;;
19521;SDS011;9905;52.126;5.596;2023-04-06T10:54:40;17.65;;;12.10;;
19521;SDS011;9905;52.126;5.596;2023-04-06T10:57:08;18.10;;;11.20;;
19521;SDS011;9905;52.126;5.596;2023-04-06T10:59:35;13.80;;;10.98;;
19521;SDS011;9905;52.126;5.596;2023-04-06T11:02:02;11.77;;;9.75;;
19521;SDS011;9905;52.126;5.596;2023-04-06T11:04:30;13.73;;;9.73;;
19521;SDS011;9905;52.126;5.596;2023-04-06T11:06:56;12.35;;;9.88;;
19521;SDS011;9905;52.126;5.596;2023-04-06T11:09:24;18.30;;;10.85;;
19521;SDS011;9905;52.126;5.596;2023-04-06T11:11:52;15.10;;;10.90;;
19521;SDS011;9905;52.126;5.596;2023-04-06T11:14:18;14.70;;;10.50;;
19521;SDS011;9905;52.126;5.596;2023-04-06T11:16:46;11.85;;;10.52;;
19521;SDS011;9905;52.126;5.596;2023-04-06T11:19:13;11.05;;;8.95;;
19521;SDS011;9905;52.126;5.596;2023-04-06T11:21:42;11.13;;;9.30;;
19521;SDS011;9905;52.126;5.596;2023-04-06T11:24:12;9.10;;;8.20;;
19521;SDS011;9905;52.126;5.596;2023-04-06T11:26:41;9.60;;;8.63;;
19521;SDS011;9905;52.126;5.596;2023-04-06T11:29:09;10.60;;;8.75;;
19521;SDS011;9905;52.126;5.596;2023-04-06T11:31:37;8.65;;;7.88;;
19521;SDS011;9905;52.126;5.596;2023-04-06T11:34:08;7.57;;;6.88;;
19521;SDS011;9905;52.126;5.596;2023-04-06T11:36:39;7.20;;;6.63;;
19521;SDS011;9905;52.126;5.596;2023-04-06T11:39:08;7.38;;;6.60;;
19521;SDS011;9905;52.126;5.596;2023-04-06T11:41:35;7.15;;;6.57;;
19521;SDS011;9905;52.126;5.596;2023-04-06T11:44:02;8.73;;;7.07;;
19521;SDS011;9905;52.126;5.596;2023-04-06T11:46:29;7.70;;;6.97;;
19521;SDS011;9905;52.126;5.596;2023-04-06T11:48:57;7.53;;;6.82;;
19521;SDS011;9905;52.126;5.596;2023-04-06T11:51:25;9.23;;;7.75;;
19521;SDS011;9905;52.126;5.596;2023-04-06T11:53:54;9.30;;;7.45;;
19521;SDS011;9905;52.126;5.596;2023-04-06T11:56:25;7.95;;;7.25;;
19521;SDS011;9905;52.126;5.596;2023-04-06T11:58:54;8.15;;;7.38;;
19521;SDS011;9905;52.126;5.596;2023-04-06T12:01:21;8.18;;;7.43;;
19521;SDS011;9905;52.126;5.596;2023-04-06T12:03:48;8.60;;;7.80;;
19521;SDS011;9905;52.126;5.596;2023-04-06T12:06:16;9.20;;;8.00;;
19521;SDS011;9905;52.126;5.596;2023-04-06T12:08:43;8.93;;;8.02;;
19521;SDS011;9905;52.126;5.596;2023-04-06T12:11:11;7.53;;;6.82;;
19521;SDS011;9905;52.126;5.596;2023-04-06T12:13:38;8.80;;;7.97;;
19521;SDS011;9905;52.126;5.596;2023-04-06T12:16:05;8.35;;;7.60;;
19521;SDS011;9905;52.126;5.596;2023-04-06T12:18:32;8.65;;;7.85;;
19521;SDS011;9905;52.126;5.596;2023-04-06T12:20:59;8.23;;;7.53;;
19521;SDS011;9905;52.126;5.596;2023-04-06T12:23:25;8.02;;;7.22;;
19521;SDS011;9905;52.126;5.596;2023-04-06T12:25:52;8.25;;;7.18;;
19521;SDS011;9905;52.126;5.596;2023-04-06T12:28:21;8.20;;;7.35;;
19521;SDS011;9905;52.126;5.596;2023-04-06T12:30:51;7.72;;;6.95;;
19521;SDS011;9905;52.126;5.596;2023-04-06T12:33:19;6.93;;;6.45;;
19521;SDS011;9905;52.126;5.596;2023-04-06T12:35:45;7.40;;;6.68;;
19521;SDS011;9905;52.126;5.596;2023-04-06T12:38:12;8.30;;;6.38;;
19521;SDS011;9905;52.126;5.596;2023-04-06T12:40:39;7.97;;;7.28;;
19521;SDS011;9905;52.126;5.596;2023-04-06T12:43:06;8.70;;;7.90;;
19521;SDS011;9905;52.126;5.596;2023-04-06T12:45:35;6.55;;;6.05;;
19521;SDS011;9905;52.126;5.596;2023-04-06T12:48:01;6.90;;;6.40;;
19521;SDS011;9905;52.126;5.596;2023-04-06T12:50:28;7.32;;;6.82;;
19521;SDS011;9905;52.126;5.596;2023-04-06T12:52:55;7.15;;;6.55;;
19521;SDS011;9905;52.126;5.596;2023-04-06T12:55:21;7.80;;;7.00;;
19521;SDS011;9905;52.126;5.596;2023-04-06T12:57:48;9.73;;;8.77;;
19521;SDS011;9905;52.126;5.596;2023-04-06T13:00:16;8.30;;;7.50;;
19521;SDS011;9905;52.126;5.596;2023-04-06T13:02:44;9.63;;;7.65;;
19521;SDS011;9905;52.126;5.596;2023-04-06T13:05:12;8.32;;;7.53;;
19521;SDS011;9905;52.126;5.596;2023-04-06T13:07:43;9.55;;;8.60;;
19521;SDS011;9905;52.126;5.596;2023-04-06T13:10:10;7.55;;;7.05;;
19521;SDS011;9905;52.126;5.596;2023-04-06T13:12:37;9.48;;;8.60;;
19521;SDS011;9905;52.126;5.596;2023-04-06T13:15:04;8.32;;;7.72;;
19521;SDS011;9905;52.126;5.596;2023-04-06T13:17:32;8.07;;;7.45;;
19521;SDS011;9905;52.126;5.596;2023-04-06T13:20:00;8.43;;;7.72;;
19521;SDS011;9905;52.126;5.596;2023-04-06T13:22:26;8.80;;;8.10;;
19521;SDS011;9905;52.126;5.596;2023-04-06T13:24:53;8.23;;;7.53;;
19521;SDS011;9905;52.126;5.596;2023-04-06T13:27:20;8.90;;;8.10;;
19521;SDS011;9905;52.126;5.596;2023-04-06T13:29:47;9.02;;;8.23;;
19521;SDS011;9905;52.126;5.596;2023-04-06T13:32:14;8.60;;;7.90;;
19521;SDS011;9905;52.126;5.596;2023-04-06T13:34:41;8.48;;;7.72;;
19521;SDS011;9905;52.126;5.596;2023-04-06T13:37:11;8.55;;;7.93;;
19521;SDS011;9905;52.126;5.596;2023-04-06T13:39:38;9.38;;;8.57;;
19521;SDS011;9905;52.126;5.596;2023-04-06T13:42:04;8.55;;;7.90;;
19521;SDS011;9905;52.126;5.596;2023-04-06T13:44:31;9.07;;;8.32;;
19521;SDS011;9905;52.126;5.596;2023-04-06T13:46:58;9.15;;;8.38;;
19521;SDS011;9905;52.126;5.596;2023-04-06T13:49:25;9.95;;;9.07;;
19521;SDS011;9905;52.126;5.596;2023-04-06T13:51:52;9.63;;;8.80;;
19521;SDS011;9905;52.126;5.596;2023-04-06T13:54:20;9.15;;;8.25;;
19521;SDS011;9905;52.126;5.596;2023-04-06T13:56:47;10.40;;;9.60;;
19521;SDS011;9905;52.126;5.596;2023-04-06T13:59:14;10.40;;;9.40;;
19521;SDS011;9905;52.126;5.596;2023-04-06T14:01:41;9.77;;;8.82;;
19521;SDS011;9905;52.126;5.596;2023-04-06T14:04:07;9.60;;;8.70;;
19521;SDS011;9905;52.126;5.596;2023-04-06T14:06:34;9.75;;;8.75;;
19521;SDS011;9905;52.126;5.596;2023-04-06T14:09:02;9.68;;;8.75;;
19521;SDS011;9905;52.126;5.596;2023-04-06T14:11:31;10.82;;;8.80;;
19521;SDS011;9905;52.126;5.596;2023-04-06T14:13:57;10.57;;;9.60;;
19521;SDS011;9905;52.126;5.596;2023-04-06T14:16:25;9.73;;;8.93;;
19521;SDS011;9905;52.126;5.596;2023-04-06T14:18:52;10.70;;;9.75;;
19521;SDS011;9905;52.126;5.596;2023-04-06T14:21:18;11.45;;;10.45;;
19521;SDS011;9905;52.126;5.596;2023-04-06T14:23:45;11.05;;;10.18;;
19521;SDS011;9905;52.126;5.596;2023-04-06T14:26:12;11.15;;;10.07;;
19521;SDS011;9905;52.126;5.596;2023-04-06T14:28:40;11.45;;;10.48;;
19521;SDS011;9905;52.126;5.596;2023-04-06T14:31:11;11.98;;;10.93;;
19521;SDS011;9905;52.126;5.596;2023-04-06T14:33:40;12.48;;;11.18;;
19521;SDS011;9905;52.126;5.596;2023-04-06T14:36:07;12.35;;;11.20;;
19521;SDS011;9905;52.126;5.596;2023-04-06T14:38:35;13.05;;;11.57;;
19521;SDS011;9905;52.126;5.596;2023-04-06T14:41:02;12.73;;;11.68;;
19521;SDS011;9905;52.126;5.596;2023-04-06T14:43:29;13.00;;;11.77;;
19521;SDS011;9905;52.126;5.596;2023-04-06T14:46:00;12.98;;;11.77;;
19521;SDS011;9905;52.126;5.596;2023-04-06T14:48:27;13.48;;;12.07;;
19521;SDS011;9905;52.126;5.596;2023-04-06T14:50:54;12.55;;;11.68;;